createdAt,value
2022-12-19T00:01:58.347Z,-1.58
2022-12-19T00:04:26.495Z,-1.62
2022-12-19T00:06:57.145Z,-1.56
2022-12-19T00:09:25.924Z,-1.51
2022-12-19T00:11:53.995Z,-1.61
2022-12-19T00:14:21.659Z,-1.70
2022-12-19T00:16:49.392Z,-1.33
2022-12-19T00:19:17.558Z,-1.29
2022-12-19T00:21:45.293Z,-1.70
2022-12-19T00:24:21.365Z,-1.74
2022-12-19T00:26:49.945Z,-1.70
2022-12-19T00:29:17.615Z,-1.63
2022-12-19T00:31:45.388Z,-1.62
2022-12-19T00:34:15.345Z,-1.66
2022-12-19T00:36:42.946Z,-1.75
2022-12-19T00:39:10.636Z,-1.66
2022-12-19T00:41:42.087Z,-0.52
2022-12-19T00:44:12.059Z,-0.83
2022-12-19T00:46:40.198Z,-1.52
2022-12-19T00:49:08.034Z,-1.59
2022-12-19T00:51:36.766Z,-0.94
2022-12-19T00:54:05.425Z,-0.46
2022-12-19T00:56:37.858Z,-1.39
2022-12-19T00:59:07.798Z,-0.68
2022-12-19T01:01:38.023Z,-0.35
2022-12-19T01:06:56.676Z,-0.04
2022-12-19T01:09:33.073Z,-0.12
2022-12-19T01:12:01.494Z,0.13
2022-12-19T01:14:29.197Z,0.06
2022-12-19T01:16:57.248Z,-0.08
2022-12-19T01:19:26.885Z,-1.23
2022-12-19T01:21:54.584Z,-1.53
2022-12-19T01:24:22.755Z,-1.66
2022-12-19T01:26:50.760Z,-1.56
2022-12-19T01:29:18.814Z,-1.55
2022-12-19T01:31:48.559Z,-1.57
2022-12-19T01:34:16.603Z,-0.69
2022-12-19T01:36:44.223Z,-0.14
2022-12-19T01:39:11.886Z,-0.14
2022-12-19T01:41:40.098Z,-0.04
2022-12-19T01:44:08.567Z,-0.05
2022-12-19T01:46:36.171Z,-0.46
2022-12-19T01:49:05.973Z,-1.41
2022-12-19T01:51:44.451Z,-1.53
2022-12-19T01:54:16.949Z,-1.49
2022-12-19T01:56:47.853Z,-1.39
2022-12-19T01:59:27.658Z,-1.47
2022-12-19T02:02:10.055Z,-1.42
2022-12-19T02:04:41.378Z,-1.44
2022-12-19T02:07:16.018Z,-1.53
2022-12-19T02:09:52.437Z,-1.52
2022-12-19T02:12:27.023Z,-1.68
2022-12-19T02:15:02.115Z,-1.72
2022-12-19T02:17:57.886Z,-1.77
2022-12-19T02:20:36.826Z,-1.49
2022-12-19T02:23:32.420Z,-1.60
2022-12-19T02:26:25.997Z,-1.71
2022-12-19T02:29:12.874Z,-1.61
2022-12-19T02:31:52.021Z,-1.73
2022-12-19T02:34:34.542Z,-1.63
2022-12-19T02:37:18.335Z,-1.58
2022-12-19T02:39:56.444Z,-0.53
2022-12-19T02:42:28.248Z,-0.34
2022-12-19T02:45:00.796Z,-0.28
2022-12-19T02:47:31.323Z,-0.42
2022-12-19T02:50:00.297Z,-0.04
2022-12-19T02:52:28.145Z,-0.16
2022-12-19T02:54:58.845Z,-0.01
2022-12-19T02:57:33.285Z,-0.15
2022-12-19T03:00:10.956Z,0.07
2022-12-19T03:03:07.086Z,-0.01
2022-12-19T03:05:44.280Z,0.11
2022-12-19T03:08:24.007Z,0.15
2022-12-19T03:10:59.763Z,0.16
2022-12-19T03:13:27.472Z,-0.43
2022-12-19T03:15:57.778Z,-0.98
2022-12-19T03:18:26.175Z,-1.17
2022-12-19T03:21:15.073Z,-1.12
2022-12-19T03:23:43.024Z,-0.63
2022-12-19T03:26:13.195Z,-0.55
2022-12-19T03:29:05.664Z,-0.59
2022-12-19T03:31:34.511Z,-0.59
2022-12-19T03:34:26.156Z,-0.53
2022-12-19T03:36:56.818Z,-0.51
2022-12-19T03:39:25.500Z,-0.83
2022-12-19T03:41:53.556Z,-0.78
2022-12-19T03:44:23.209Z,-0.86
2022-12-19T03:47:09.901Z,-0.82
2022-12-19T03:49:39.043Z,-0.98
2022-12-19T03:52:26.839Z,-1.04
2022-12-19T03:55:12.849Z,-0.96
2022-12-19T03:57:48.943Z,-1.09
2022-12-19T04:00:17.621Z,-0.94
2022-12-19T04:02:51.534Z,-1.01
2022-12-19T04:05:21.496Z,-0.94
2022-12-19T04:07:51.125Z,-1.03
2022-12-19T04:10:21.144Z,-0.77
2022-12-19T04:12:53.622Z,-0.77
2022-12-19T04:15:30.040Z,-0.82
2022-12-19T04:17:59.013Z,-0.75
2022-12-19T04:20:27.162Z,-0.76
2022-12-19T04:23:04.585Z,-0.83
2022-12-19T04:25:36.594Z,-0.67
2022-12-19T04:28:05.482Z,-0.84
2022-12-19T04:30:36.926Z,-0.85
2022-12-19T04:33:04.968Z,-0.76
2022-12-19T04:35:34.247Z,-0.72
2022-12-19T04:38:04.237Z,-0.77
2022-12-19T04:40:36.553Z,-0.78
2022-12-19T04:43:07.452Z,-0.80
2022-12-19T04:45:35.420Z,0.37
2022-12-19T04:48:04.693Z,0.55
2022-12-19T04:50:34.870Z,0.59
2022-12-19T04:53:03.105Z,-0.44
2022-12-19T04:55:30.730Z,-0.68
2022-12-19T04:57:58.840Z,-0.55
2022-12-19T05:00:26.577Z,-0.64
2022-12-19T05:02:54.315Z,-0.60
2022-12-19T05:05:22.357Z,-0.61
2022-12-19T05:07:49.952Z,-0.67
2022-12-19T05:10:17.748Z,-0.54
2022-12-19T05:12:45.716Z,-0.65
2022-12-19T05:15:13.438Z,-0.69
2022-12-19T05:17:41.273Z,-0.62
2022-12-19T05:20:09.760Z,-0.71
2022-12-19T05:22:37.325Z,-0.48
2022-12-19T05:25:05.413Z,-0.46
2022-12-19T05:27:33.476Z,-0.55
2022-12-19T05:30:01.266Z,-0.70
2022-12-19T05:32:31.918Z,-0.62
2022-12-19T05:34:59.951Z,-0.67
2022-12-19T05:37:27.654Z,-0.73
2022-12-19T05:39:55.280Z,-0.58
2022-12-19T05:42:25.370Z,0.64
2022-12-19T05:44:53.109Z,-0.32
2022-12-19T05:47:20.802Z,-0.64
2022-12-19T05:49:48.794Z,-0.65
2022-12-19T05:52:16.554Z,-0.65
2022-12-19T05:54:44.107Z,-0.65
2022-12-19T05:57:12.091Z,-0.57
2022-12-19T05:59:39.996Z,-0.53
2022-12-19T06:02:07.632Z,-0.66
2022-12-19T06:04:35.752Z,-0.76
2022-12-19T06:07:03.940Z,-0.74
2022-12-19T06:09:31.636Z,-0.60
2022-12-19T06:11:59.643Z,-0.52
2022-12-19T06:14:27.325Z,-0.65
2022-12-19T06:16:54.907Z,-0.81
2022-12-19T06:19:23.183Z,-0.73
2022-12-19T06:21:50.816Z,-0.55
2022-12-19T06:24:18.494Z,-0.75
2022-12-19T06:26:46.346Z,-1.02
2022-12-19T06:29:14.048Z,-0.77
2022-12-19T06:31:41.902Z,-0.69
2022-12-19T06:34:10.877Z,-0.98
2022-12-19T06:36:41.208Z,-0.85
2022-12-19T06:39:13.172Z,-0.01
2022-12-19T06:41:42.530Z,0.31
2022-12-19T06:44:12.198Z,0.50
2022-12-19T06:46:41.097Z,0.53
2022-12-19T06:49:10.717Z,0.30
2022-12-19T06:51:38.488Z,-0.32
2022-12-19T06:54:06.471Z,-0.07
2022-12-19T06:56:35.925Z,-0.20
2022-12-19T06:59:04.297Z,-0.28
2022-12-19T07:02:16.065Z,-0.12
2022-12-19T07:04:50.707Z,-0.77
2022-12-19T07:07:18.282Z,-1.50
2022-12-19T07:09:46.421Z,-1.74
2022-12-19T07:12:14.498Z,-1.70
2022-12-19T07:14:42.402Z,-1.71
2022-12-19T07:17:10.336Z,-1.60
2022-12-19T07:19:38.035Z,-1.69
2022-12-19T07:22:06.684Z,-1.51
2022-12-19T07:24:35.247Z,-1.53
2022-12-19T07:27:03.327Z,-1.58
2022-12-19T07:29:35.242Z,-1.46
2022-12-19T07:32:04.783Z,-1.39
2022-12-19T07:34:32.444Z,-1.21
2022-12-19T07:37:00.121Z,-1.34
2022-12-19T07:39:28.181Z,-1.42
2022-12-19T07:41:55.804Z,-1.44
2022-12-19T07:44:27.515Z,-0.22
2022-12-19T07:46:55.507Z,-0.25
2022-12-19T07:49:23.185Z,-0.76
2022-12-19T07:51:50.824Z,-1.31
2022-12-19T07:54:18.873Z,-1.28
2022-12-19T07:56:46.516Z,-1.64
2022-12-19T07:59:14.514Z,-1.58
2022-12-19T08:01:42.919Z,-1.45
2022-12-19T08:04:10.938Z,-1.31
2022-12-19T08:06:41.300Z,-1.41
2022-12-19T08:09:09.335Z,-1.42
2022-12-19T08:11:38.090Z,-1.32
2022-12-19T08:14:05.724Z,-1.30
2022-12-19T08:16:43.919Z,-1.56
2022-12-19T08:19:25.908Z,-1.32
2022-12-19T08:21:55.008Z,-0.95
2022-12-19T08:24:22.923Z,-1.43
2022-12-19T08:26:50.616Z,-0.53
2022-12-19T08:29:20.013Z,-0.08
2022-12-19T08:31:50.378Z,0.09
2022-12-19T08:34:18.015Z,0.16
2022-12-19T08:36:45.780Z,0.23
2022-12-19T08:39:13.749Z,0.49
2022-12-19T08:41:41.610Z,0.64
2022-12-19T08:44:11.331Z,0.59
2022-12-19T08:46:40.903Z,0.75
2022-12-19T08:49:10.256Z,0.51
2022-12-19T08:51:38.008Z,0.82
2022-12-19T08:54:07.950Z,0.33
2022-12-19T08:56:41.933Z,0.64
2022-12-19T08:59:26.003Z,0.57
2022-12-19T09:02:02.126Z,0.83
2022-12-19T09:06:01.889Z,0.54
2022-12-19T09:07:18.004Z,0.79
2022-12-19T09:09:45.881Z,0.87
2022-12-19T09:12:14.451Z,0.99
2022-12-19T09:14:44.742Z,1.09
2022-12-19T09:17:12.780Z,1.18
2022-12-19T09:19:41.250Z,0.61
2022-12-19T09:22:16.361Z,0.79
2022-12-19T09:24:43.930Z,0.82
2022-12-19T09:27:11.609Z,1.07
2022-12-19T09:29:40.066Z,0.98
2022-12-19T09:32:07.773Z,1.52
2022-12-19T09:34:38.667Z,1.44
2022-12-19T09:37:07.610Z,1.11
2022-12-19T09:39:35.665Z,-0.13
2022-12-19T09:42:41.369Z,-0.12
2022-12-19T09:45:31.955Z,0.15
2022-12-19T09:48:01.817Z,0.38
2022-12-19T09:50:50.169Z,0.43
2022-12-19T09:54:05.054Z,0.48
2022-12-19T09:56:45.326Z,0.55
2022-12-19T09:59:19.342Z,0.63
2022-12-19T10:01:57.966Z,0.17
2022-12-19T10:04:33.336Z,0.55
2022-12-19T10:07:20.438Z,0.39
2022-12-19T10:12:35.412Z,0.87
2022-12-19T10:12:58.386Z,2.07
2022-12-19T10:15:38.411Z,2.32
2022-12-19T10:18:17.964Z,2.37
2022-12-19T10:20:52.326Z,1.95
2022-12-19T10:23:26.474Z,2.18
2022-12-19T10:26:00.452Z,2.51
2022-12-19T10:28:50.021Z,2.24
2022-12-19T10:31:35.690Z,2.50
2022-12-19T10:34:22.329Z,2.33
2022-12-19T10:37:23.242Z,2.77
2022-12-19T10:39:55.157Z,2.28
2022-12-19T10:42:32.168Z,2.51
2022-12-19T10:45:03.507Z,1.99
2022-12-19T10:47:32.108Z,2.47
2022-12-19T10:50:04.002Z,2.47
2022-12-19T10:52:50.204Z,2.35
2022-12-19T10:55:32.869Z,2.48
2022-12-19T10:58:30.278Z,2.32
2022-12-19T11:01:03.958Z,2.44
2022-12-19T11:03:33.716Z,2.49
2022-12-19T11:06:02.684Z,2.52
2022-12-19T11:08:32.376Z,2.32
2022-12-19T11:13:32.718Z,2.29
2022-12-19T11:18:44.483Z,2.39
2022-12-19T11:19:08.956Z,2.33
2022-12-19T11:25:40.780Z,2.28
2022-12-19T11:29:32.069Z,2.10
2022-12-19T11:30:26.153Z,2.47
2022-12-19T11:30:34.336Z,2.11
2022-12-19T11:32:31.872Z,2.59
2022-12-19T11:34:25.810Z,2.57
2022-12-19T11:37:11.610Z,3.18
2022-12-19T11:39:48.157Z,2.84
2022-12-19T11:42:23.690Z,3.38
2022-12-19T11:45:03.559Z,3.09
2022-12-19T11:47:37.602Z,2.68
2022-12-19T11:50:23.074Z,2.60
2022-12-19T11:53:35.686Z,2.46
2022-12-19T11:56:16.527Z,2.77
2022-12-19T11:58:48.789Z,2.68
2022-12-19T12:01:47.507Z,2.68
2022-12-19T12:04:33.776Z,3.28
2022-12-19T12:07:03.076Z,3.46
2022-12-19T12:14:27.917Z,3.56
2022-12-19T12:21:24.998Z,3.54
2022-12-19T12:29:53.354Z,4.09
2022-12-19T12:31:13.348Z,2.93
2022-12-19T12:31:15.312Z,3.47
2022-12-19T12:31:43.272Z,2.73
2022-12-19T12:32:04.007Z,2.63
2022-12-19T12:35:40.503Z,2.60
2022-12-19T12:35:56.312Z,2.62
2022-12-19T12:38:24.741Z,2.28
2022-12-19T12:41:06.011Z,2.73
2022-12-19T12:43:58.298Z,3.00
2022-12-19T12:46:31.472Z,2.71
2022-12-19T12:49:03.365Z,2.97
2022-12-19T12:51:33.125Z,3.39
2022-12-19T12:54:06.014Z,3.70
2022-12-19T12:56:35.599Z,3.54
2022-12-19T12:59:18.137Z,3.17
2022-12-19T13:01:50.463Z,3.71
2022-12-19T13:04:19.975Z,3.42
2022-12-19T13:06:50.812Z,3.70
2022-12-19T13:09:27.489Z,2.66
2022-12-19T13:12:02.761Z,3.03
2022-12-19T13:14:36.445Z,3.16
2022-12-19T13:17:08.142Z,2.65
2022-12-19T13:19:40.018Z,2.84
2022-12-19T13:22:07.746Z,2.53
2022-12-19T13:24:42.550Z,2.43
2022-12-19T13:27:19.832Z,2.76
2022-12-19T13:29:59.391Z,2.58
2022-12-19T13:32:32.063Z,2.57
2022-12-19T13:35:49.101Z,2.74
2022-12-19T13:40:01.727Z,2.46
2022-12-19T13:41:28.855Z,1.23
2022-12-19T13:44:00.240Z,1.22
2022-12-19T13:46:41.003Z,1.52
2022-12-19T13:49:17.757Z,1.53
2022-12-19T13:51:52.429Z,1.21
2022-12-19T13:54:32.483Z,0.85
2022-12-19T13:57:03.363Z,0.84
2022-12-19T13:59:38.662Z,0.89
2022-12-19T14:02:27.000Z,0.99
2022-12-19T14:04:55.737Z,0.75
2022-12-19T14:07:39.492Z,0.47
2022-12-19T14:11:36.635Z,0.36
2022-12-19T14:13:57.614Z,0.28
2022-12-19T14:16:17.209Z,0.10
2022-12-19T14:18:49.399Z,0.18
2022-12-19T14:22:05.443Z,0.31
2022-12-19T14:24:16.183Z,0.28
2022-12-19T14:28:23.279Z,-0.03
2022-12-19T14:30:26.729Z,0.02
2022-12-19T14:33:47.422Z,-0.13
2022-12-19T14:36:12.420Z,-0.06
2022-12-19T14:39:24.704Z,-0.16
2022-12-19T14:41:19.602Z,-0.50
2022-12-19T14:43:59.897Z,-0.53
2022-12-19T14:52:08.494Z,-0.27
2022-12-19T14:54:03.317Z,-0.09
2022-12-19T14:54:37.064Z,-0.13
2022-12-19T14:56:19.548Z,-0.11
2022-12-19T14:58:55.994Z,-0.18
2022-12-19T15:01:28.363Z,-0.20
2022-12-19T15:04:47.892Z,-0.31
2022-12-19T15:07:08.076Z,-0.29
2022-12-19T15:11:04.817Z,-0.44
2022-12-19T15:14:47.323Z,-0.47
2022-12-19T15:15:51.424Z,-0.65
2022-12-19T15:18:32.019Z,-0.83
2022-12-19T15:21:04.698Z,-0.83
2022-12-19T15:23:32.695Z,-0.97
2022-12-19T15:26:04.614Z,-1.06
2022-12-19T15:28:51.301Z,-1.14
2022-12-19T15:31:34.205Z,-1.05
2022-12-19T15:34:44.770Z,-1.10
2022-12-19T15:37:11.313Z,-1.06
2022-12-19T15:39:39.665Z,-1.04
2022-12-19T15:42:19.870Z,-1.21
2022-12-19T15:44:48.730Z,-1.23
2022-12-19T15:47:32.109Z,-1.16
2022-12-19T15:50:01.689Z,-1.14
2022-12-19T15:52:29.721Z,-1.16
2022-12-19T15:54:57.383Z,-1.20
2022-12-19T15:57:34.941Z,-1.30
2022-12-19T16:00:06.566Z,-1.18
2022-12-19T16:03:13.406Z,-1.29
2022-12-19T16:05:26.046Z,-1.45
2022-12-19T16:07:57.314Z,-1.36
2022-12-19T16:10:25.744Z,-1.33
2022-12-19T16:12:55.544Z,-1.25
2022-12-19T16:15:27.345Z,-1.42
2022-12-19T16:17:56.419Z,-1.56
2022-12-19T16:20:30.664Z,-1.54
2022-12-19T16:22:58.619Z,-1.37
2022-12-19T16:25:41.899Z,-1.55
2022-12-19T16:28:25.770Z,-1.55
2022-12-19T16:30:55.627Z,-1.45
2022-12-19T16:33:28.656Z,-1.48
2022-12-19T16:36:06.078Z,-1.59
2022-12-19T16:38:34.205Z,-1.39
2022-12-19T16:41:02.787Z,-1.57
2022-12-19T16:43:38.847Z,-1.76
2022-12-19T16:46:16.822Z,-1.59
2022-12-19T16:48:44.601Z,-1.66
2022-12-19T16:51:21.100Z,-1.64
2022-12-19T16:53:52.126Z,-1.71
2022-12-19T16:56:35.282Z,-1.70
2022-12-19T16:59:06.162Z,-1.66
2022-12-19T17:01:34.328Z,-1.73
2022-12-19T17:04:02.075Z,-1.61
2022-12-19T17:06:29.779Z,-1.72
2022-12-19T17:08:57.726Z,-1.60
2022-12-19T17:11:28.124Z,-1.44
2022-12-19T17:14:08.189Z,-1.68
2022-12-19T17:16:36.581Z,-1.58
2022-12-19T17:19:04.445Z,-1.81
2022-12-19T17:21:32.072Z,-1.69
2022-12-19T17:24:00.090Z,-1.64
2022-12-19T17:26:27.715Z,-1.71
2022-12-19T17:28:55.398Z,-1.80
2022-12-19T17:31:26.421Z,-1.79
2022-12-19T17:33:55.526Z,-1.83
2022-12-19T17:36:29.868Z,-1.75
2022-12-19T17:39:01.430Z,-1.69
2022-12-19T17:41:29.357Z,-1.77
2022-12-19T17:43:56.992Z,-1.78
2022-12-19T17:46:30.650Z,-1.82
2022-12-19T17:48:58.623Z,-1.89
2022-12-19T17:51:26.374Z,-1.87
2022-12-19T17:53:54.004Z,-1.79
2022-12-19T17:56:22.055Z,-1.67
2022-12-19T17:58:49.968Z,-1.74
2022-12-19T18:01:23.132Z,-1.74
2022-12-19T18:03:52.775Z,-1.76
2022-12-19T18:06:20.746Z,-1.68
2022-12-19T18:08:48.415Z,-1.83
2022-12-19T18:11:19.317Z,-1.89
2022-12-19T18:13:47.330Z,-1.75
2022-12-19T18:16:18.458Z,-1.74
2022-12-19T18:18:47.712Z,-1.81
2022-12-19T18:21:17.885Z,-1.69
2022-12-19T18:23:46.525Z,-1.61
2022-12-19T18:26:14.450Z,-1.60
2022-12-19T18:28:43.178Z,-1.86
2022-12-19T18:31:31.670Z,-1.76
2022-12-19T18:34:05.346Z,-1.76
2022-12-19T18:36:40.255Z,-1.83
2022-12-19T18:39:20.725Z,-1.85
2022-12-19T18:41:49.472Z,-1.77
2022-12-19T18:44:17.681Z,-1.74
2022-12-19T18:46:45.930Z,-1.69
2022-12-19T18:49:16.781Z,-1.77
2022-12-19T18:51:44.928Z,-1.73
2022-12-19T18:54:14.333Z,-1.75
2022-12-19T18:56:42.922Z,-1.68
2022-12-19T18:59:10.718Z,-1.50
2022-12-19T19:01:42.514Z,-1.68
2022-12-19T19:04:11.312Z,-1.62
2022-12-19T19:06:42.093Z,-1.74
2022-12-19T19:09:18.769Z,-1.62
2022-12-19T19:11:48.149Z,-1.62
2022-12-19T19:14:16.058Z,-1.59
2022-12-19T19:16:44.853Z,-1.68
2022-12-19T19:19:15.037Z,-1.73
2022-12-19T19:21:43.801Z,-0.66
2022-12-19T19:24:17.858Z,-1.60
2022-12-19T19:26:48.215Z,-1.66
2022-12-19T19:29:17.180Z,-1.69
2022-12-19T19:31:47.373Z,-1.67
2022-12-19T19:34:28.249Z,-1.74
2022-12-19T19:36:58.159Z,-1.79
2022-12-19T19:39:26.574Z,-1.72
2022-12-19T19:41:54.507Z,-2.08
2022-12-19T19:44:22.354Z,-1.88
2022-12-19T19:46:50.109Z,-2.07
2022-12-19T19:49:17.903Z,-1.95
2022-12-19T19:51:46.242Z,-1.82
2022-12-19T19:54:14.000Z,-1.91
2022-12-19T19:56:42.030Z,-2.06
2022-12-19T19:59:10.106Z,-2.09
2022-12-19T20:01:38.066Z,-2.19
2022-12-19T20:04:06.314Z,-1.81
2022-12-19T20:06:34.025Z,-2.02
2022-12-19T20:09:02.160Z,-1.93
2022-12-19T20:11:30.487Z,-1.56
2022-12-19T20:13:58.139Z,-1.63
2022-12-19T20:16:28.972Z,-1.73
2022-12-19T20:18:57.082Z,-1.52
2022-12-19T20:21:24.865Z,-1.59
2022-12-19T20:23:52.597Z,-1.87
2022-12-19T20:26:20.768Z,-2.08
2022-12-19T20:28:50.377Z,-2.05
2022-12-19T20:31:22.412Z,-2.01
2022-12-19T20:33:51.056Z,-2.05
2022-12-19T20:36:19.224Z,-2.15
2022-12-19T20:38:47.217Z,-1.96
2022-12-19T20:41:16.125Z,-2.05
2022-12-19T20:43:44.173Z,-1.86
2022-12-19T20:46:17.663Z,-1.64
2022-12-19T20:48:48.474Z,-1.59
2022-12-19T20:51:17.110Z,-1.57
2022-12-19T20:53:45.703Z,-1.65
2022-12-19T20:56:16.480Z,-1.58
2022-12-19T20:58:44.815Z,-1.56
2022-12-19T21:01:19.269Z,-1.98
2022-12-19T21:03:48.721Z,-1.63
2022-12-19T21:06:18.813Z,-1.86
2022-12-19T21:08:47.030Z,-1.67
2022-12-19T21:11:15.321Z,-1.70
2022-12-19T21:13:44.114Z,-2.03
2022-12-19T21:16:14.649Z,-1.96
2022-12-19T21:18:43.984Z,-1.93
2022-12-19T21:21:19.060Z,-2.13
2022-12-19T21:23:47.070Z,-2.03
2022-12-19T21:26:15.081Z,-2.09
2022-12-19T21:28:43.565Z,-2.12
2022-12-19T21:31:28.856Z,-1.97
2022-12-19T21:33:58.491Z,-1.82
2022-12-19T21:36:26.916Z,-1.91
2022-12-19T21:38:56.951Z,-2.10
2022-12-19T21:41:25.052Z,-2.15
2022-12-19T21:43:54.478Z,-2.23
2022-12-19T21:46:24.755Z,-2.13
2022-12-19T21:48:54.967Z,-2.18
2022-12-19T21:51:25.585Z,-2.19
2022-12-19T21:53:58.078Z,-1.84
2022-12-19T21:56:26.757Z,-2.10
2022-12-19T21:58:57.311Z,-2.13
2022-12-19T22:01:25.615Z,-2.17
2022-12-19T22:03:58.280Z,-2.11
2022-12-19T22:06:29.240Z,-2.00
2022-12-19T22:08:57.930Z,-2.24
2022-12-19T22:11:26.406Z,-2.18
2022-12-19T22:13:54.249Z,-1.75
2022-12-19T22:16:22.222Z,-1.92
2022-12-19T22:18:50.130Z,-2.14
2022-12-19T22:21:18.232Z,-1.96
2022-12-19T22:23:46.271Z,-1.49
2022-12-19T22:26:14.915Z,-1.57
2022-12-19T22:28:44.912Z,-1.68
2022-12-19T22:31:18.943Z,-2.07
2022-12-19T22:33:47.455Z,-2.16
2022-12-19T22:36:19.687Z,-2.26
2022-12-19T22:38:50.787Z,-2.10
2022-12-19T22:41:24.508Z,-2.04
2022-12-19T22:43:52.915Z,-2.02
2022-12-19T22:46:26.761Z,-1.94
2022-12-19T22:49:08.456Z,-2.10
2022-12-19T22:51:36.894Z,-2.05
2022-12-19T22:54:05.438Z,-2.06
2022-12-19T22:56:33.918Z,-2.01
2022-12-19T22:59:04.147Z,-1.08
2022-12-19T23:01:38.427Z,-2.09
2022-12-19T23:04:08.106Z,-2.01
2022-12-19T23:06:39.074Z,-2.17
2022-12-19T23:09:08.392Z,-2.14
2022-12-19T23:11:37.878Z,-2.33
2022-12-19T23:14:07.468Z,-2.25
2022-12-19T23:16:35.777Z,-2.20
2022-12-19T23:19:04.988Z,-2.03
2022-12-19T23:21:32.852Z,-2.07
2022-12-19T23:24:00.965Z,-2.03
2022-12-19T23:26:31.117Z,-2.12
2022-12-19T23:29:01.430Z,-1.97
2022-12-19T23:31:29.616Z,-2.23
2022-12-19T23:33:58.455Z,-2.31
2022-12-19T23:39:14.697Z,-2.35
2022-12-19T23:41:44.246Z,-2.31
2022-12-19T23:44:12.119Z,-2.32
2022-12-19T23:46:40.324Z,-2.26
2022-12-19T23:49:07.991Z,-2.20
2022-12-19T23:51:35.585Z,-2.16
2022-12-19T23:54:03.543Z,-2.16
2022-12-19T23:56:32.195Z,-2.08
2022-12-19T23:59:00.451Z,-1.34
